Time;durP1;ratioP1;P1;durP2;ratioP2;P2;SDS_P1;SDS_P2;PMS_P1;PMS_P2;Temp;Humidity;BMP_temperature;BMP_pressure;BME280_temperature;BME280_humidity;BME280_pressure;Samples;Min_cycle;Max_cycle;Signal;HPM_P1;HPM_P2
2022/09/23 00:00:36;;;;;;;1.83;1.73;;;10.50;81.90;;;;;;5047389;28;20195;-74
2022/09/23 00:03:03;;;;;;;1.83;1.67;;;10.40;82.00;;;;;;5052652;28;20205;-75
2022/09/23 00:05:30;;;;;;;2.20;2.07;;;10.50;82.10;;;;;;5048042;28;20215;-75
2022/09/23 00:07:56;;;;;;;1.70;1.70;;;10.40;82.10;;;;;;5048515;28;20252;-74
2022/09/23 00:10:27;;;;;;;1.60;1.50;;;10.40;82.10;;;;;;5052664;28;20226;-74
2022/09/23 00:12:54;;;;;;;2.47;2.37;;;10.40;81.90;;;;;;5043747;28;20271;-74
2022/09/23 00:15:20;;;;;;;1.65;1.65;;;10.30;82.60;;;;;;5050621;28;20198;-74
2022/09/23 00:17:46;;;;;;;1.73;1.57;;;10.30;82.00;;;;;;5048626;28;20175;-74
2022/09/23 00:20:13;;;;;;;2.30;2.10;;;10.30;82.30;;;;;;5048448;28;20605;-74
2022/09/23 00:22:38;;;;;;;1.83;1.73;;;10.30;82.30;;;;;;5044801;28;20676;-74
2022/09/23 00:25:06;;;;;;;1.70;1.60;;;10.30;81.70;;;;;;5051088;28;20211;-74
2022/09/23 00:27:35;;;;;;;1.30;1.30;;;10.30;81.90;;;;;;5049939;28;20680;-75
2022/09/23 00:30:03;;;;;;;1.70;1.70;;;10.30;81.40;;;;;;5049398;28;20648;-74
2022/09/23 00:32:28;;;;;;;1.53;1.53;;;10.20;81.90;;;;;;5054070;28;20195;-74
2022/09/23 00:34:54;;;;;;;1.63;1.63;;;10.20;82.40;;;;;;5050071;28;20179;-75
2022/09/23 00:37:20;;;;;;;1.47;1.47;;;10.20;82.10;;;;;;5053330;28;20649;-74
2022/09/23 00:39:45;;;;;;;1.63;1.63;;;10.20;82.00;;;;;;5053133;28;20187;-74
2022/09/23 00:42:17;;;;;;;4.23;1.70;;;10.20;82.20;;;;;;5051614;28;20957;-74
2022/09/23 00:44:43;;;;;;;1.40;1.40;;;10.20;81.80;;;;;;5049078;28;20219;-74
2022/09/23 00:47:27;;;;;;;1.30;1.27;;;10.10;81.40;;;;;;5053316;28;20178;-73
2022/09/23 00:50:12;;;;;;;1.50;1.50;;;10.10;81.10;;;;;;5056753;28;20639;-73
2022/09/23 00:52:38;;;;;;;2.23;2.13;;;10.00;81.70;;;;;;5046297;28;20270;-74
2022/09/23 00:55:09;;;;;;;1.67;1.67;;;10.00;81.60;;;;;;5053309;28;20187;-73
2022/09/23 00:57:39;;;;;;;1.67;1.67;;;10.00;82.10;;;;;;5046988;28;20186;-73
2022/09/23 01:00:06;;;;;;;1.60;1.60;;;10.00;82.00;;;;;;5054765;28;20238;-74
2022/09/23 01:02:33;;;;;;;1.73;1.73;;;10.00;82.30;;;;;;5051696;28;20702;-73
2022/09/23 01:05:02;;;;;;;1.88;1.88;;;10.00;82.90;;;;;;5050673;28;20212;-75
2022/09/23 01:07:28;;;;;;;2.00;2.00;;;10.00;82.80;;;;;;5048365;28;20230;-73
2022/09/23 01:09:56;;;;;;;2.00;2.00;;;9.90;83.20;;;;;;5051016;28;20179;-75
2022/09/23 01:12:24;;;;;;;1.97;1.87;;;9.90;83.20;;;;;;5053130;28;20210;-73
2022/09/23 01:15:15;;;;;;;1.60;1.50;;;9.90;83.00;;;;;;5046869;28;20198;-74
2022/09/23 01:18:03;;;;;;;1.77;1.67;;;9.80;83.80;;;;;;5052215;28;20195;-74
2022/09/23 01:20:47;;;;;;;1.77;1.73;;;9.70;84.70;;;;;;5053906;28;20269;-74
2022/09/23 01:23:22;;;;;;;2.90;2.00;;;9.70;85.50;;;;;;5054523;28;20270;-74
2022/09/23 01:26:29;;;;;;;2.10;2.00;;;9.60;86.30;;;;;;5052008;28;20210;-74
2022/09/23 01:29:09;;;;;;;1.70;1.60;;;9.60;85.20;;;;;;5046769;28;20179;-73
2022/09/23 01:31:42;;;;;;;1.87;1.77;;;9.50;85.80;;;;;;5046448;28;20198;-74
2022/09/23 01:34:35;;;;;;;2.17;2.07;;;9.50;86.10;;;;;;5052103;28;20587;-74
2022/09/23 01:37:18;;;;;;;1.87;1.77;;;9.40;86.80;;;;;;5049429;28;21078;-74
2022/09/23 01:40:05;;;;;;;1.30;1.30;;;9.40;87.00;;;;;;5055232;28;20197;-74
2022/09/23 01:42:57;;;;;;;1.63;1.63;;;9.50;86.50;;;;;;5049809;28;20206;-74
2022/09/23 01:45:39;;;;;;;1.80;1.80;;;9.40;86.20;;;;;;5047078;28;21153;-74
2022/09/23 01:48:41;;;;;;;1.80;1.80;;;9.30;87.40;;;;;;5050699;28;20190;-74
2022/09/23 01:51:23;;;;;;;1.90;1.80;;;9.20;87.80;;;;;;5052108;28;20197;-74
2022/09/23 01:53:56;;;;;;;1.60;1.60;;;9.20;87.50;;;;;;5054636;28;20184;-74
2022/09/23 01:56:33;;;;;;;1.77;1.67;;;9.20;87.90;;;;;;5055028;28;20729;-74
2022/09/23 01:59:21;;;;;;;1.93;1.83;;;9.30;87.10;;;;;;5048948;28;20684;-75
2022/09/23 02:01:59;;;;;;;1.97;1.80;;;9.20;87.50;;;;;;5049034;28;20758;-75
2022/09/23 02:04:38;;;;;;;1.63;1.60;;;9.20;87.60;;;;;;5047976;28;20603;-73
2022/09/23 02:07:34;;;;;;;2.10;2.00;;;9.20;87.70;;;;;;5051256;28;20580;-74
2022/09/23 02:10:32;;;;;;;1.90;1.80;;;9.10;87.90;;;;;;5051279;28;20222;-74
2022/09/23 02:13:05;;;;;;;4.33;2.10;;;9.10;87.90;;;;;;5050620;28;20270;-74
2022/09/23 02:15:40;;;;;;;2.30;2.20;;;9.10;87.60;;;;;;5046745;28;20190;-74
2022/09/23 02:18:13;;;;;;;1.83;1.83;;;9.10;88.00;;;;;;5056240;28;20181;-74
2022/09/23 02:20:40;;;;;;;2.20;2.03;;;9.20;87.20;;;;;;5050611;28;20245;-75
2022/09/23 02:23:09;;;;;;;2.50;2.40;;;9.20;87.50;;;;;;5048588;28;20186;-74
2022/09/23 02:25:57;;;;;;;1.77;1.67;;;9.30;87.30;;;;;;5052321;28;20207;-74
2022/09/23 02:28:42;;;;;;;2.00;1.90;;;9.30;87.00;;;;;;5050156;28;20178;-75
2022/09/23 02:31:14;;;;;;;2.30;2.20;;;9.30;86.00;;;;;;5046908;28;20187;-73
2022/09/23 02:33:54;;;;;;;2.23;2.03;;;9.30;86.20;;;;;;5048070;28;20571;-74
2022/09/23 02:36:37;;;;;;;1.90;1.80;;;9.30;86.60;;;;;;5050926;28;20175;-73
2022/09/23 02:39:07;;;;;;;1.77;1.67;;;9.30;86.60;;;;;;5048327;28;20255;-74
2022/09/23 02:41:50;;;;;;;1.83;1.73;;;9.40;86.40;;;;;;5045886;28;20270;-74
2022/09/23 02:44:18;;;;;;;2.07;1.77;;;9.40;86.20;;;;;;5046523;28;20202;-74
2022/09/23 02:46:45;;;;;;;1.63;1.60;;;9.40;86.10;;;;;;5049781;28;20199;-75
2022/09/23 02:49:13;;;;;;;2.03;1.93;;;9.40;86.20;;;;;;5046925;28;20263;-74
2022/09/23 02:51:39;;;;;;;2.17;2.07;;;9.40;86.00;;;;;;5049348;28;20271;-74
2022/09/23 02:54:13;;;;;;;1.70;1.70;;;9.30;85.70;;;;;;5051451;28;20197;-74
2022/09/23 02:56:40;;;;;;;1.87;1.77;;;9.30;85.50;;;;;;5043699;28;20680;-74
2022/09/23 02:59:07;;;;;;;1.40;1.40;;;9.30;85.70;;;;;;5051002;28;20194;-74
2022/09/23 03:01:48;;;;;;;1.93;1.83;;;9.30;86.20;;;;;;5047769;28;20184;-74
2022/09/23 03:04:37;;;;;;;4.47;1.73;;;9.30;85.50;;;;;;5051859;28;20171;-74
2022/09/23 03:07:21;;;;;;;1.73;1.73;;;9.30;85.60;;;;;;5050970;28;20192;-74
2022/09/23 03:10:06;;;;;;;2.00;1.90;;;9.30;85.00;;;;;;5044033;28;20181;-74
2022/09/23 03:13:00;;;;;;;1.33;1.33;;;9.30;85.50;;;;;;5045056;28;20176;-74
2022/09/23 03:15:32;;;;;;;2.07;1.97;;;9.30;85.50;;;;;;5049134;28;20653;-74
2022/09/23 03:18:17;;;;;;;1.63;1.53;;;9.30;85.80;;;;;;5052138;28;20187;-74
2022/09/23 03:21:02;;;;;;;1.80;1.70;;;9.30;85.20;;;;;;5050191;28;20207;-74
2022/09/23 03:23:36;;;;;;;2.97;2.03;;;9.30;85.70;;;;;;5048043;28;20182;-74
2022/09/23 03:26:09;;;;;;;1.77;1.67;;;9.10;86.20;;;;;;5052871;28;20207;-74
2022/09/23 03:28:36;;;;;;;1.40;1.40;;;9.20;85.80;;;;;;5051672;28;20174;-74
2022/09/23 03:31:03;;;;;;;1.60;1.60;;;9.20;85.90;;;;;;5051868;28;20244;-74
2022/09/23 03:33:30;;;;;;;1.53;1.53;;;9.10;86.50;;;;;;5051501;28;20278;-74
2022/09/23 03:39:02;;;;;;;2.00;1.90;;;9.10;86.10;;;;;;5050610;28;21139;-74
2022/09/23 03:41:37;;;;;;;1.50;1.50;;;9.10;86.20;;;;;;5046522;28;20182;-74
2022/09/23 03:44:05;;;;;;;1.67;1.67;;;9.00;86.30;;;;;;5050388;28;20179;-74
2022/09/23 03:46:34;;;;;;;2.73;1.83;;;9.00;86.10;;;;;;5048067;28;20735;-73
2022/09/23 03:49:18;;;;;;;1.33;1.33;;;8.90;86.30;;;;;;5055185;28;20194;-74
2022/09/23 03:51:44;;;;;;;2.30;2.20;;;8.90;85.90;;;;;;5049128;28;20190;-73
2022/09/23 03:54:10;;;;;;;2.00;1.90;;;8.90;86.20;;;;;;5045780;28;20653;-74
2022/09/23 03:56:36;;;;;;;1.50;1.40;;;8.80;86.00;;;;;;5047839;28;20187;-75
2022/09/23 03:59:02;;;;;;;1.93;1.93;;;8.80;86.00;;;;;;5049705;28;20241;-74
2022/09/23 04:01:28;;;;;;;1.47;1.47;;;8.80;85.90;;;;;;5047341;28;20191;-74
2022/09/23 04:03:54;;;;;;;2.00;1.90;;;8.70;86.20;;;;;;5047665;28;20197;-74
2022/09/23 04:06:20;;;;;;;2.07;1.97;;;8.70;86.60;;;;;;5050318;28;20939;-74
2022/09/23 04:08:46;;;;;;;2.03;1.93;;;8.70;86.70;;;;;;5061663;28;20201;-74
2022/09/23 04:11:12;;;;;;;2.63;2.53;;;8.70;86.90;;;;;;5053082;28;20247;-74
2022/09/23 04:13:37;;;;;;;2.30;2.20;;;8.60;86.30;;;;;;5054331;28;20191;-74
2022/09/23 04:16:03;;;;;;;1.93;1.83;;;8.60;86.50;;;;;;5050246;28;20696;-74
2022/09/23 04:18:30;;;;;;;3.03;2.67;;;8.50;86.40;;;;;;5054804;28;20237;-74
2022/09/23 04:20:58;;;;;;;1.87;1.77;;;8.50;86.90;;;;;;5052677;28;20182;-75
2022/09/23 04:23:25;;;;;;;2.30;2.20;;;8.50;87.00;;;;;;5049433;28;20259;-74
2022/09/23 04:25:51;;;;;;;2.43;2.33;;;8.50;87.30;;;;;;5048143;28;20393;-74
2022/09/23 04:28:17;;;;;;;2.73;2.63;;;8.40;87.40;;;;;;5055355;28;21022;-74
2022/09/23 04:30:43;;;;;;;2.93;2.73;;;8.40;87.50;;;;;;5053557;28;20175;-75
2022/09/23 04:33:12;;;;;;;2.93;2.73;;;8.40;87.80;;;;;;5055675;28;20183;-75
2022/09/23 04:35:39;;;;;;;2.40;2.30;;;8.40;88.30;;;;;;5056150;28;20201;-74
2022/09/23 04:38:06;;;;;;;2.53;2.43;;;8.30;88.60;;;;;;5054484;28;20191;-74
2022/09/23 04:40:31;;;;;;;2.40;2.30;;;8.30;88.90;;;;;;5053838;28;20214;-75
2022/09/23 04:42:57;;;;;;;2.90;2.70;;;8.30;88.50;;;;;;5051134;28;20557;-74
2022/09/23 04:45:23;;;;;;;2.80;2.53;;;8.30;89.20;;;;;;5055244;28;20215;-74
2022/09/23 04:47:49;;;;;;;3.13;2.83;;;8.30;89.20;;;;;;5051366;28;20186;-74
2022/09/23 04:50:14;;;;;;;3.23;2.87;;;8.20;90.20;;;;;;5048832;28;20194;-74
2022/09/23 04:52:40;;;;;;;2.90;2.70;;;8.20;90.20;;;;;;5055073;28;20183;-74
2022/09/23 04:55:07;;;;;;;3.07;2.87;;;8.30;90.00;;;;;;5052707;28;20202;-74
2022/09/23 04:57:33;;;;;;;3.23;3.03;;;8.30;90.30;;;;;;5055364;28;20251;-74
2022/09/23 05:00:00;;;;;;;2.60;2.50;;;8.30;90.10;;;;;;5046730;28;20274;-73
2022/09/23 05:02:27;;;;;;;3.00;2.90;;;8.30;90.30;;;;;;5053170;28;20191;-73
2022/09/23 05:04:53;;;;;;;3.57;3.27;;;8.30;90.50;;;;;;5049913;28;20229;-73
2022/09/23 05:07:18;;;;;;;3.23;3.03;;;8.40;89.90;;;;;;5053361;28;20206;-75
2022/09/23 05:09:45;;;;;;;4.17;3.77;;;8.40;89.80;;;;;;5050837;28;20699;-74
2022/09/23 05:12:11;;;;;;;4.20;3.90;;;8.40;89.70;;;;;;5054461;28;20188;-74
2022/09/23 05:14:37;;;;;;;4.30;4.07;;;8.40;89.60;;;;;;5046647;28;20244;-75
2022/09/23 05:17:04;;;;;;;4.30;4.00;;;8.40;89.80;;;;;;5049972;28;21228;-74
2022/09/23 05:19:30;;;;;;;6.27;4.43;;;8.50;89.80;;;;;;5051284;28;20192;-74
2022/09/23 05:21:56;;;;;;;5.17;3.40;;;8.40;90.30;;;;;;5045893;28;20173;-75
2022/09/23 05:24:23;;;;;;;3.27;3.10;;;8.30;90.50;;;;;;5044102;28;20275;-79
2022/09/23 05:26:49;;;;;;;2.87;2.67;;;8.40;90.30;;;;;;5041317;28;20223;-73
2022/09/23 05:29:14;;;;;;;2.70;2.60;;;8.40;89.70;;;;;;5049013;28;20191;-76
2022/09/23 05:31:40;;;;;;;2.70;2.50;;;8.40;90.00;;;;;;5049102;28;20569;-75
2022/09/23 05:34:06;;;;;;;2.10;2.00;;;8.40;90.30;;;;;;5051731;28;20199;-74
2022/09/23 05:36:35;;;;;;;2.33;2.23;;;8.50;90.10;;;;;;5056858;28;20180;-74
2022/09/23 05:39:00;;;;;;;2.23;2.13;;;8.50;90.00;;;;;;5053272;28;20333;-74
2022/09/23 05:41:26;;;;;;;3.07;2.87;;;8.70;89.80;;;;;;5053556;28;20183;-74
2022/09/23 05:43:53;;;;;;;1.90;1.90;;;8.70;89.50;;;;;;5058197;28;20183;-74
2022/09/23 05:46:25;;;;;;;2.03;2.03;;;8.70;89.10;;;;;;5053157;28;20213;-74
2022/09/23 05:48:50;;;;;;;2.47;2.37;;;8.70;89.10;;;;;;5047056;28;20211;-76
2022/09/23 05:51:19;;;;;;;1.80;1.80;;;8.90;88.60;;;;;;5053901;28;20730;-75
2022/09/23 05:53:46;;;;;;;1.77;1.70;;;8.90;88.40;;;;;;5049713;28;20537;-75
2022/09/23 05:56:14;;;;;;;2.10;2.00;;;8.80;88.40;;;;;;5047263;28;20183;-75
2022/09/23 05:58:40;;;;;;;1.87;1.77;;;8.90;88.30;;;;;;5051636;28;20622;-75
2022/09/23 06:01:14;;;;;;;1.93;1.93;;;8.90;88.20;;;;;;5052825;28;20188;-75
2022/09/23 06:03:40;;;;;;;1.90;1.90;;;8.90;88.20;;;;;;5051661;28;20198;-76
2022/09/23 06:06:10;;;;;;;1.50;1.50;;;8.90;88.00;;;;;;5044702;28;20704;-74
2022/09/23 06:08:36;;;;;;;1.47;1.47;;;9.00;87.70;;;;;;5049312;28;20206;-75
2022/09/23 06:11:07;;;;;;;2.37;2.17;;;9.00;87.60;;;;;;5051704;28;20191;-74
2022/09/23 06:13:37;;;;;;;1.53;1.53;;;9.00;87.40;;;;;;5050995;28;20696;-74
2022/09/23 06:16:04;;;;;;;1.70;1.67;;;9.00;87.70;;;;;;5046248;28;20202;-74
2022/09/23 06:18:30;;;;;;;1.73;1.70;;;9.00;87.50;;;;;;5052593;28;20193;-75
2022/09/23 06:21:00;;;;;;;1.40;1.33;;;9.00;87.80;;;;;;5054256;28;20180;-74
2022/09/23 06:23:26;;;;;;;1.60;1.60;;;9.00;87.30;;;;;;5045282;28;20610;-74
2022/09/23 06:25:51;;;;;;;1.43;1.43;;;9.10;87.20;;;;;;5051954;28;20272;-73
2022/09/23 06:28:17;;;;;;;1.77;1.67;;;9.10;87.00;;;;;;5056182;28;21007;-74
2022/09/23 06:30:43;;;;;;;2.13;1.83;;;9.10;87.30;;;;;;5050971;28;20321;-75
2022/09/23 06:33:09;;;;;;;2.00;1.90;;;9.20;87.10;;;;;;5043506;28;20184;-74
2022/09/23 06:35:34;;;;;;;1.47;1.47;;;9.20;87.00;;;;;;5056302;28;21895;-74
2022/09/23 06:38:04;;;;;;;1.83;1.73;;;9.30;86.90;;;;;;5052906;28;20229;-74
2022/09/23 06:40:30;;;;;;;2.17;2.10;;;9.30;86.60;;;;;;5046549;28;20195;-74
2022/09/23 06:42:57;;;;;;;1.67;1.57;;;9.40;86.40;;;;;;5050910;28;20703;-74
2022/09/23 06:45:24;;;;;;;2.27;2.07;;;9.60;86.20;;;;;;5053017;28;20210;-75
2022/09/23 06:47:56;;;;;;;1.60;1.60;;;9.70;86.20;;;;;;5051292;28;20858;-74
2022/09/23 06:50:26;;;;;;;1.77;1.73;;;9.70;85.90;;;;;;5054346;28;20260;-74
2022/09/23 06:52:55;;;;;;;1.57;1.57;;;9.80;85.60;;;;;;5051963;28;20262;-74
2022/09/23 06:55:26;;;;;;;1.67;1.63;;;9.90;85.50;;;;;;5051166;28;21014;-74
2022/09/23 06:57:51;;;;;;;1.90;1.90;;;9.80;85.40;;;;;;5049132;28;20189;-74
2022/09/23 07:00:18;;;;;;;1.60;1.60;;;9.80;85.60;;;;;;5056119;28;20653;-74
2022/09/23 07:02:44;;;;;;;1.80;1.80;;;9.90;85.50;;;;;;5054123;28;20284;-74
2022/09/23 07:05:10;;;;;;;2.30;2.20;;;10.00;85.10;;;;;;5056549;28;20890;-73
2022/09/23 07:07:36;;;;;;;1.60;1.60;;;10.00;85.00;;;;;;5049774;28;20192;-73
2022/09/23 07:10:04;;;;;;;2.10;2.00;;;10.10;84.90;;;;;;5055275;28;20726;-74
2022/09/23 07:12:31;;;;;;;2.00;1.90;;;10.10;84.90;;;;;;5052468;28;20265;-74
2022/09/23 07:14:57;;;;;;;2.17;1.57;;;10.10;85.00;;;;;;5050338;28;20185;-73
2022/09/23 07:17:23;;;;;;;1.80;1.70;;;10.20;84.40;;;;;;5054391;28;20630;-74
2022/09/23 07:19:50;;;;;;;2.43;1.50;;;10.30;84.30;;;;;;5053623;28;20273;-74
2022/09/23 07:22:16;;;;;;;2.10;2.00;;;10.40;84.30;;;;;;5048619;28;20210;-74
2022/09/23 07:24:43;;;;;;;1.98;1.67;;;10.50;84.20;;;;;;5053161;28;20183;-74
2022/09/23 07:27:08;;;;;;;1.30;1.30;;;10.60;83.90;;;;;;5053739;28;20202;-74
2022/09/23 07:29:34;;;;;;;1.60;1.60;;;10.60;83.10;;;;;;5050363;28;20183;-74
2022/09/23 07:32:00;;;;;;;2.13;2.03;;;10.70;83.60;;;;;;5054149;28;20182;-75
2022/09/23 07:34:25;;;;;;;2.17;2.07;;;10.80;83.00;;;;;;5052463;28;20190;-74
2022/09/23 07:36:53;;;;;;;1.60;1.60;;;10.80;82.70;;;;;;5051989;28;20731;-75
2022/09/23 07:39:19;;;;;;;1.30;1.30;;;10.80;82.40;;;;;;5051049;28;20249;-75
2022/09/23 07:41:44;;;;;;;1.88;1.70;;;10.90;82.40;;;;;;5053975;28;20186;-75
2022/09/23 07:44:11;;;;;;;1.40;1.40;;;11.00;82.10;;;;;;5045653;28;20187;-75
2022/09/23 07:46:37;;;;;;;1.57;1.57;;;11.00;81.80;;;;;;5046536;28;20207;-74
2022/09/23 07:49:04;;;;;;;1.40;1.40;;;11.10;82.00;;;;;;5053574;28;20314;-72
2022/09/23 07:51:33;;;;;;;1.38;1.38;;;11.00;81.80;;;;;;5045053;28;20186;-72
2022/09/23 07:53:59;;;;;;;1.20;1.20;;;11.10;82.20;;;;;;5046342;28;20187;-72
2022/09/23 07:56:28;;;;;;;1.58;1.58;;;11.20;81.70;;;;;;5043809;28;20199;-73
2022/09/23 07:59:02;;;;;;;1.40;1.40;;;11.20;81.50;;;;;;5045393;28;20195;-73
2022/09/23 08:01:31;;;;;;;1.67;1.67;;;11.30;81.40;;;;;;5055755;28;20187;-73
2022/09/23 08:04:02;;;;;;;1.75;1.65;;;11.60;81.60;;;;;;5045758;28;20203;-76
2022/09/23 08:06:28;;;;;;;1.65;1.55;;;11.80;81.80;;;;;;5049071;28;20219;-75
2022/09/23 08:08:57;;;;;;;1.40;1.40;;;12.10;81.00;;;;;;5035752;28;21195;-75
2022/09/23 08:11:23;;;;;;;1.52;1.52;;;12.50;79.00;;;;;;5045029;28;20719;-75
2022/09/23 08:13:49;;;;;;;1.75;1.75;;;12.90;78.20;;;;;;5051412;28;20179;-76
2022/09/23 08:16:15;;;;;;;2.10;2.00;;;13.50;77.90;;;;;;5046751;28;20175;-75
2022/09/23 08:18:44;;;;;;;1.70;1.63;;;14.00;76.60;;;;;;5042146;28;20943;-75
2022/09/23 08:21:10;;;;;;;1.50;1.50;;;14.60;74.50;;;;;;5048171;28;20184;-76
2022/09/23 08:23:36;;;;;;;1.85;1.75;;;15.30;72.40;;;;;;5039910;28;20194;-74
2022/09/23 08:26:05;;;;;;;1.83;1.83;;;15.90;72.00;;;;;;5041604;28;20290;-74
2022/09/23 08:28:34;;;;;;;2.22;2.13;;;16.40;69.90;;;;;;5042628;28;20187;-75
2022/09/23 08:31:00;;;;;;;2.00;1.90;;;17.00;70.00;;;;;;5078896;28;20197;-76
2022/09/23 08:33:26;;;;;;;1.80;1.80;;;17.50;68.70;;;;;;5043044;28;20270;-75
2022/09/23 08:35:57;;;;;;;1.48;1.48;;;17.90;68.30;;;;;;5049794;28;20193;-74
2022/09/23 08:38:23;;;;;;;1.88;1.88;;;18.30;66.90;;;;;;5042901;28;20221;-75
2022/09/23 08:40:49;;;;;;;1.15;1.15;;;18.80;67.20;;;;;;5049430;28;20206;-76
2022/09/23 08:43:25;;;;;;;1.35;1.35;;;19.40;66.50;;;;;;5048201;28;20266;-76
2022/09/23 08:45:54;;;;;;;2.17;2.17;;;20.00;62.60;;;;;;5049010;28;20603;-76
2022/09/23 08:48:43;;;;;;;1.75;1.67;;;20.30;60.30;;;;;;5054348;28;20758;-76
2022/09/23 08:51:20;;;;;;;1.40;1.40;;;20.60;60.50;;;;;;5047559;28;20179;-75
2022/09/23 08:53:46;;;;;;;1.73;1.73;;;20.70;60.30;;;;;;5052765;28;20262;-75
2022/09/23 08:56:18;;;;;;;1.60;1.60;;;21.00;61.80;;;;;;5056698;28;20261;-74
2022/09/23 08:59:04;;;;;;;1.60;1.60;;;21.20;58.00;;;;;;5049438;28;20187;-75
2022/09/23 09:01:44;;;;;;;1.80;1.80;;;21.30;59.40;;;;;;5046624;28;20885;-75
2022/09/23 09:04:14;;;;;;;1.20;1.20;;;21.40;57.00;;;;;;5053834;28;20187;-74
2022/09/23 09:06:47;;;;;;;1.80;1.77;;;21.50;57.80;;;;;;5044831;28;20751;-74
2022/09/23 09:09:42;;;;;;;1.50;1.50;;;21.40;57.60;;;;;;5045412;28;20281;-74
2022/09/23 09:12:45;;;;;;;1.10;1.10;;;21.50;58.00;;;;;;5051270;28;20193;-74
2022/09/23 09:15:19;;;;;;;0.90;0.90;;;21.80;55.20;;;;;;5028878;28;20200;-75
2022/09/23 09:18:06;;;;;;;1.30;1.30;;;22.10;55.40;;;;;;5028195;28;20187;-75
2022/09/23 09:20:50;;;;;;;1.10;1.10;;;22.40;54.40;;;;;;5007940;28;20187;-73
2022/09/23 09:23:21;;;;;;;0.90;0.90;;;22.60;55.80;;;;;;5027944;28;20177;-74
2022/09/23 09:25:51;;;;;;;1.27;1.27;;;23.00;55.20;;;;;;5023600;28;20755;-73
2022/09/23 09:28:26;;;;;;;0.80;0.80;;;23.40;56.00;;;;;;5026358;28;20279;-74
2022/09/23 09:31:45;;;;;;;1.13;1.13;;;23.50;53.70;;;;;;5022905;28;20194;-73
2022/09/23 09:34:25;;;;;;;1.40;1.40;;;23.60;55.50;;;;;;4945747;28;20187;-73
2022/09/23 09:37:13;;;;;;;1.20;1.20;;;23.40;55.70;;;;;;4959315;28;20259;-74
2022/09/23 09:39:39;;;;;;;0.90;0.90;;;23.30;56.00;;;;;;4939764;28;20226;-73
2022/09/23 09:42:06;;;;;;;0.93;0.93;;;23.50;54.80;;;;;;4938764;28;20184;-74
2022/09/23 09:44:34;;;;;;;0.70;0.70;;;23.90;55.30;;;;;;4955812;28;20217;-73
2022/09/23 09:47:13;;;;;;;0.73;0.73;;;24.40;54.60;;;;;;4953936;28;20233;-71
2022/09/23 09:49:57;;;;;;;0.90;0.90;;;25.10;54.90;;;;;;4957169;28;20194;-72
2022/09/23 09:52:27;;;;;;;1.08;1.08;;;25.80;52.60;;;;;;4952011;28;20194;-72
2022/09/23 09:54:59;;;;;;;0.80;0.80;;;25.80;50.30;;;;;;4937156;28;20190;-72
2022/09/23 09:57:36;;;;;;;0.75;0.75;;;25.90;54.10;;;;;;4937612;28;20687;-72
2022/09/23 10:00:20;;;;;;;0.90;0.90;;;26.30;50.90;;;;;;4933114;28;20765;-72
2022/09/23 10:02:51;;;;;;;0.90;0.90;;;26.80;51.80;;;;;;4931799;28;20585;-72
2022/09/23 10:05:45;;;;;;;0.90;0.90;;;27.20;51.50;;;;;;4951455;28;20391;-72
2022/09/23 10:08:25;;;;;;;0.70;0.70;;;27.60;48.20;;;;;;4948031;28;20230;-73
2022/09/23 10:10:57;;;;;;;0.70;0.70;;;27.50;50.80;;;;;;5011305;28;20200;-73
2022/09/23 10:13:23;;;;;;;0.75;0.75;;;27.60;49.70;;;;;;5053448;28;20209;-73
2022/09/23 10:15:53;;;;;;;0.80;0.80;;;27.70;50.80;;;;;;5050393;28;20713;-72
2022/09/23 10:18:42;;;;;;;0.90;0.90;;;27.90;49.50;;;;;;5048998;28;20176;-73
2022/09/23 10:21:16;;;;;;;0.70;0.70;;;28.30;50.60;;;;;;5044130;28;20191;-74
2022/09/23 10:23:45;;;;;;;0.63;0.63;;;28.60;50.00;;;;;;5049919;28;20178;-73
2022/09/23 10:26:12;;;;;;;0.60;0.60;;;29.10;47.70;;;;;;5050841;28;20274;-73
2022/09/23 10:28:49;;;;;;;0.80;0.80;;;29.20;44.60;;;;;;5047732;28;20188;-72
2022/09/23 10:31:25;;;;;;;2.95;0.70;;;29.10;45.90;;;;;;5048316;28;20959;-73
2022/09/23 10:33:54;;;;;;;0.80;0.80;;;29.10;44.50;;;;;;5047389;28;20183;-72
2022/09/23 10:36:20;;;;;;;0.70;0.70;;;29.10;47.60;;;;;;5050231;28;20660;-72
2022/09/23 10:38:54;;;;;;;0.80;0.80;;;29.40;46.60;;;;;;5050731;28;20175;-72
2022/09/23 10:48:02;;;;;;;0.70;0.70;;;29.60;45.10;;;;;;5050775;28;20210;-74
2022/09/23 10:50:35;;;;;;;0.63;0.63;;;28.70;45.10;;;;;;5052985;28;20440;-73
2022/09/23 10:53:22;;;;;;;0.80;0.80;;;28.40;45.50;;;;;;5047017;28;20182;-73
2022/09/23 10:56:06;;;;;;;0.85;0.80;;;28.50;46.00;;;;;;5044238;28;20688;-73
2022/09/23 10:58:41;;;;;;;0.90;0.90;;;28.70;43.20;;;;;;5050320;28;20187;-73
2022/09/23 11:01:28;;;;;;;0.80;0.80;;;28.30;45.80;;;;;;5050899;28;20679;-73
2022/09/23 11:04:29;;;;;;;0.77;0.77;;;27.80;44.80;;;;;;5046094;28;20191;-73
2022/09/23 11:07:14;;;;;;;0.80;0.80;;;27.20;44.40;;;;;;5046960;28;20210;-73
2022/09/23 11:10:10;;;;;;;0.95;0.95;;;26.50;46.50;;;;;;5050513;28;20183;-73
2022/09/23 11:12:46;;;;;;;0.60;0.60;;;26.00;45.90;;;;;;5049119;28;20179;-73
2022/09/23 11:15:15;;;;;;;0.68;0.68;;;25.80;47.70;;;;;;5049618;28;20692;-73
2022/09/23 11:17:50;;;;;;;0.95;0.60;;;25.70;45.10;;;;;;5051388;28;20184;-73
2022/09/23 11:20:40;;;;;;;0.60;0.60;;;25.40;46.40;;;;;;5051976;28;20209;-74
2022/09/23 11:23:25;;;;;;;0.40;0.40;;;25.30;44.20;;;;;;5043022;28;20184;-73
2022/09/23 11:26:08;;;;;;;0.60;0.60;;;25.20;44.90;;;;;;5052515;28;20267;-75
2022/09/23 11:28:49;;;;;;;0.55;0.55;;;25.20;45.60;;;;;;5048100;28;20194;-73
2022/09/23 11:31:44;;;;;;;0.47;0.47;;;25.70;45.30;;;;;;5047835;28;20187;-73
2022/09/23 11:34:46;;;;;;;0.50;0.50;;;26.20;46.20;;;;;;5046030;28;20178;-72
2022/09/23 11:37:20;;;;;;;1.45;0.47;;;26.60;44.10;;;;;;5046458;28;20179;-73
2022/09/23 11:40:15;;;;;;;0.35;0.35;;;26.80;44.90;;;;;;5046229;28;20273;-73
2022/09/23 11:43:12;;;;;;;0.40;0.40;;;26.90;43.80;;;;;;5046006;28;20187;-72
2022/09/23 11:46:08;;;;;;;0.50;0.50;;;27.20;44.40;;;;;;5000801;28;20228;-72
2022/09/23 11:48:39;;;;;;;0.40;0.40;;;27.40;43.90;;;;;;4977726;28;20197;-73
2022/09/23 11:51:13;;;;;;;0.40;0.40;;;27.60;43.30;;;;;;5001502;28;20284;-73
2022/09/23 11:53:38;;;;;;;2.33;0.50;;;27.60;42.80;;;;;;5000580;28;20208;-72
2022/09/23 11:56:14;;;;;;;0.47;0.47;;;27.50;43.10;;;;;;5001858;28;20263;-73
2022/09/23 11:58:54;;;;;;;0.50;0.50;;;27.50;45.60;;;;;;4999538;28;20188;-73
2022/09/23 12:01:31;;;;;;;0.40;0.40;;;27.60;42.40;;;;;;4999615;28;20189;-73
2022/09/23 12:04:03;;;;;;;0.40;0.40;;;27.70;42.80;;;;;;4998684;28;20188;-73
2022/09/23 12:06:35;;;;;;;0.40;0.40;;;27.90;42.70;;;;;;4999711;28;20220;-73
2022/09/23 12:09:11;;;;;;;0.50;0.50;;;28.20;44.00;;;;;;4999356;28;20688;-73
2022/09/23 12:12:02;;;;;;;0.40;0.40;;;28.50;43.80;;;;;;5000339;28;20315;-73
2022/09/23 12:14:39;;;;;;;0.43;0.40;;;28.60;41.80;;;;;;4998718;28;20712;-72
2022/09/23 12:17:24;;;;;;;1.38;0.60;;;28.40;42.60;;;;;;5000104;28;20682;-72
2022/09/23 12:20:19;;;;;;;0.70;0.70;;;28.40;45.70;;;;;;5000115;28;20213;-73
2022/09/23 12:23:22;;;;;;;0.77;0.77;;;28.60;45.90;;;;;;4966991;28;20200;-73
2022/09/23 12:26:05;;;;;;;0.60;0.60;;;28.30;44.30;;;;;;5014344;28;20219;-72
2022/09/23 12:28:43;;;;;;;0.65;0.65;;;27.60;46.20;;;;;;4988289;28;20211;-72
2022/09/23 12:31:17;;;;;;;0.60;0.60;;;27.00;46.40;;;;;;5011167;28;20219;-73
2022/09/23 12:33:53;;;;;;;0.60;0.60;;;26.70;47.10;;;;;;5008245;28;20229;-73
2022/09/23 12:36:34;;;;;;;0.90;0.90;;;26.80;49.00;;;;;;5009723;28;20267;-73
2022/09/23 12:39:16;;;;;;;2.30;0.70;;;27.10;48.90;;;;;;5010731;28;20180;-73
2022/09/23 12:41:45;;;;;;;0.50;0.50;;;27.30;48.10;;;;;;4992718;28;20192;-73
2022/09/23 12:44:13;;;;;;;0.68;0.68;;;27.60;48.00;;;;;;5013510;28;20180;-72
2022/09/23 12:46:43;;;;;;;0.70;0.70;;;27.60;46.70;;;;;;5004169;28;21835;-72
2022/09/23 12:49:25;;;;;;;0.60;0.60;;;27.40;46.20;;;;;;5008551;28;20188;-71
2022/09/23 12:52:09;;;;;;;1.00;0.68;;;27.00;46.00;;;;;;5003972;28;20195;-73
2022/09/23 12:54:37;;;;;;;0.63;0.63;;;26.70;46.40;;;;;;5003879;28;20185;-74
2022/09/23 12:57:13;;;;;;;0.60;0.60;;;26.40;47.20;;;;;;5000444;28;20706;-73
2022/09/23 12:59:53;;;;;;;0.88;0.68;;;25.90;46.20;;;;;;5021344;28;20203;-73
2022/09/23 13:02:41;;;;;;;0.50;0.50;;;25.30;47.60;;;;;;5045263;28;20182;-74
2022/09/23 13:07:59;;;;;;;0.70;0.70;;;24.30;48.80;;;;;;5048532;28;20264;-73
2022/09/23 13:10:42;;;;;;;0.68;0.68;;;23.90;50.10;;;;;;5055949;28;20191;-73
2022/09/23 13:13:20;;;;;;;0.75;0.70;;;23.40;49.60;;;;;;5043829;28;20183;-72
2022/09/23 13:15:46;;;;;;;0.70;0.70;;;23.10;51.40;;;;;;5048133;28;20252;-73
2022/09/23 13:18:18;;;;;;;0.45;0.40;;;23.20;51.90;;;;;;5049749;28;20183;-75
2022/09/23 13:20:45;;;;;;;1.20;0.70;;;23.40;51.10;;;;;;5046806;28;20194;-74
2022/09/23 13:23:30;;;;;;;1.05;0.63;;;23.80;51.40;;;;;;5049416;28;20685;-74
2022/09/23 13:26:01;;;;;;;0.70;0.70;;;24.30;49.80;;;;;;5049395;28;20646;-74
2022/09/23 13:28:38;;;;;;;0.70;0.70;;;24.80;49.40;;;;;;5046551;28;20202;-75
2022/09/23 13:31:12;;;;;;;0.60;0.60;;;25.30;49.30;;;;;;5040497;28;20183;-74
2022/09/23 13:33:44;;;;;;;1.30;0.60;;;25.80;47.50;;;;;;5050920;28;20233;-75